createdAt,value
2019-05-09T13:09:12.048Z,19.61
2019-05-09T13:11:42.373Z,19.55
2019-05-09T13:14:12.712Z,19.54
2019-05-09T13:16:49.550Z,19.56
2019-05-09T13:19:18.624Z,19.73
2019-05-09T13:21:49.150Z,19.68
2019-05-09T13:24:19.938Z,19.61
2019-05-09T13:26:52.021Z,19.58
2019-05-09T13:29:22.347Z,19.67
2019-05-09T13:31:52.671Z,19.62
2019-05-09T13:34:22.992Z,19.57
2019-05-09T13:36:53.316Z,19.59
2019-05-09T13:39:23.680Z,19.57
2019-05-09T13:41:54.034Z,19.58
2019-05-09T13:44:24.367Z,19.59
2019-05-09T13:46:54.752Z,19.62
2019-05-09T13:49:25.065Z,19.67
2019-05-09T13:52:03.959Z,19.70
2019-05-09T13:54:28.593Z,19.80
2019-05-09T13:57:01.416Z,19.82
2019-05-09T13:59:31.110Z,19.57
2019-05-09T14:02:01.436Z,19.66
2019-05-09T14:04:31.957Z,19.55
2019-05-09T14:07:02.275Z,19.61
2019-05-09T14:09:32.612Z,19.66
2019-05-09T14:12:02.940Z,19.67
2019-05-09T14:14:33.273Z,19.69
2019-05-09T14:17:03.613Z,19.72
2019-05-09T14:19:45.114Z,19.70
2019-05-09T14:22:08.216Z,19.67
2019-05-09T14:24:38.068Z,19.60
2019-05-09T14:27:08.400Z,19.59
2019-05-09T14:29:38.730Z,19.57
2019-05-09T14:32:09.122Z,19.54
2019-05-09T14:34:42.747Z,19.51
2019-05-09T14:37:11.509Z,19.49
2019-05-09T14:39:54.735Z,19.51
2019-05-09T14:42:13.970Z,19.58
2019-05-09T14:44:44.298Z,19.55
2019-05-09T14:47:14.695Z,19.52
2019-05-09T14:49:45.082Z,19.55
2019-05-09T14:52:15.425Z,19.54
2019-05-09T14:54:48.124Z,19.52
2019-05-09T14:57:18.086Z,19.51
2019-05-09T14:59:48.411Z,19.53
2019-05-09T15:02:18.802Z,19.55
2019-05-09T15:04:49.144Z,19.46
2019-05-09T15:07:19.651Z,19.44
2019-05-09T15:09:50.198Z,19.54
2019-05-09T15:12:20.544Z,19.52
2019-05-09T15:14:50.891Z,19.48
2019-05-09T15:17:21.014Z,19.44
2019-05-09T15:19:59.539Z,19.52
2019-05-09T15:22:23.083Z,19.53
2019-05-09T15:24:53.166Z,19.47
2019-05-09T15:27:23.338Z,19.50
2019-05-09T15:29:53.488Z,19.56
2019-05-09T15:32:23.660Z,19.56
2019-05-09T15:34:53.796Z,19.55
2019-05-09T15:37:23.971Z,19.48
2019-05-09T15:39:54.093Z,19.53
2019-05-09T15:42:24.288Z,19.48
2019-05-09T15:44:54.416Z,19.53
2019-05-09T15:47:28.951Z,19.53
2019-05-09T15:50:14.606Z,19.54
2019-05-09T15:52:31.068Z,19.53
2019-05-09T15:55:01.191Z,19.73
2019-05-09T15:57:34.395Z,19.60
2019-05-09T16:00:08.508Z,19.50
2019-05-09T16:02:39.281Z,19.66
2019-05-09T16:05:10.724Z,19.36
2019-05-09T16:07:40.957Z,19.42
2019-05-09T16:10:11.522Z,19.43
2019-05-09T16:12:41.629Z,19.37
2019-05-09T16:15:12.305Z,18.66
2019-05-09T16:17:42.371Z,18.15
2019-05-09T16:20:12.867Z,18.94
2019-05-09T16:22:43.099Z,19.09
2019-05-09T16:25:13.330Z,19.15
2019-05-09T16:27:43.433Z,19.14
2019-05-09T16:30:14.467Z,19.19
2019-05-09T16:32:44.657Z,19.21
2019-05-09T16:35:15.124Z,19.13
2019-05-09T16:37:58.263Z,19.14
2019-05-09T16:40:17.237Z,19.17
2019-05-09T16:42:47.571Z,19.20
2019-05-09T16:45:18.401Z,19.22
2019-05-09T16:47:48.801Z,19.19
2019-05-09T16:50:20.703Z,21.41
2019-05-09T16:52:50.853Z,20.79
2019-05-09T16:55:22.633Z,19.93
2019-05-09T16:57:52.723Z,18.96
2019-05-09T17:00:33.119Z,18.57
2019-05-09T17:03:03.225Z,18.10
2019-05-09T17:05:33.325Z,18.00
2019-05-09T17:08:03.494Z,17.70
2019-05-09T17:10:33.585Z,17.57
2019-05-09T17:13:03.821Z,17.31
2019-05-09T17:15:34.005Z,17.16
2019-05-09T17:18:04.389Z,16.64
2019-05-09T17:20:38.215Z,16.33
2019-05-09T17:23:14.485Z,16.32
2019-05-09T17:25:41.949Z,16.21
2019-05-09T17:28:12.237Z,16.01
2019-05-09T17:30:42.495Z,16.02
2019-05-09T17:33:14.386Z,15.99
2019-05-09T17:35:44.531Z,15.85
2019-05-09T17:38:14.762Z,15.68
2019-05-09T17:40:44.848Z,15.66
2019-05-09T17:43:15.249Z,15.71
2019-05-09T17:45:47.630Z,15.53
2019-05-09T17:48:18.261Z,15.48
2019-05-09T17:50:48.714Z,15.15
2019-05-09T17:53:18.807Z,15.22
2019-05-09T17:55:48.896Z,15.26
2019-05-09T17:58:29.692Z,15.18
2019-05-09T18:00:50.828Z,15.23
2019-05-09T18:03:21.093Z,15.27
2019-05-09T18:05:51.180Z,15.10
2019-05-09T18:08:21.272Z,14.98
2019-05-09T18:10:51.361Z,14.97
2019-05-09T18:13:24.005Z,14.92
2019-05-09T18:15:53.443Z,15.07
2019-05-09T18:18:23.812Z,15.07
2019-05-09T18:20:53.902Z,15.16
2019-05-09T18:23:24.063Z,15.13
2019-05-09T18:25:54.239Z,15.03
2019-05-09T18:28:24.702Z,15.15
2019-05-09T18:30:54.864Z,15.07
2019-05-09T18:33:32.112Z,15.05
2019-05-09T18:36:02.236Z,15.10
2019-05-09T18:38:34.626Z,15.10
2019-05-09T18:41:07.230Z,15.21
2019-05-09T18:43:36.848Z,15.21
2019-05-09T18:46:08.376Z,15.27
2019-05-09T18:48:38.690Z,15.24
2019-05-09T18:51:08.778Z,15.25
2019-05-09T18:53:38.937Z,15.24
2019-05-09T18:56:09.035Z,15.33
2019-05-09T18:58:39.125Z,15.37
2019-05-09T19:01:09.360Z,15.21
2019-05-09T19:03:39.467Z,12.00
2019-05-09T19:06:09.550Z,11.08
2019-05-09T19:08:39.648Z,10.88
2019-05-09T19:11:09.735Z,10.86
2019-05-09T19:13:39.973Z,10.95
2019-05-09T19:16:17.358Z,10.90
2019-05-09T19:19:06.677Z,10.96
2019-05-09T19:21:42.391Z,10.87
2019-05-09T19:24:12.506Z,10.87
2019-05-09T19:26:42.614Z,10.88
2019-05-09T19:29:12.718Z,10.88
2019-05-09T19:31:42.789Z,10.76
2019-05-09T19:34:12.874Z,10.76
2019-05-09T19:36:42.987Z,10.80
2019-05-09T19:39:13.630Z,10.69
2019-05-09T19:41:43.798Z,10.64
2019-05-09T19:44:15.694Z,10.51
2019-05-09T19:46:45.813Z,10.56
2019-05-09T19:49:16.009Z,10.59
2019-05-09T19:51:46.133Z,10.60
2019-05-09T19:54:17.506Z,10.48
2019-05-09T19:56:47.677Z,10.49
2019-05-09T19:59:17.811Z,10.52
2019-05-09T20:01:47.873Z,10.48
2019-05-09T20:04:17.970Z,10.53
2019-05-09T20:06:48.059Z,10.45
2019-05-09T20:09:19.889Z,10.50
2019-05-09T20:12:06.725Z,10.49
2019-05-09T20:14:38.473Z,10.35
2019-05-09T20:17:08.582Z,10.49
2019-05-09T20:19:38.674Z,10.47
2019-05-09T20:22:08.785Z,10.56
2019-05-09T20:24:38.884Z,10.56
2019-05-09T20:27:09.049Z,10.59
2019-05-09T20:29:39.174Z,10.54
2019-05-09T20:32:09.321Z,10.52
2019-05-09T20:34:39.399Z,10.36
2019-05-09T20:37:09.742Z,10.38
2019-05-09T20:39:40.088Z,10.34
2019-05-09T20:42:10.346Z,10.32
2019-05-09T20:44:40.890Z,10.41
2019-05-09T20:47:11.169Z,10.41
2019-05-09T20:49:41.463Z,10.36
2019-05-09T20:52:11.791Z,10.39
2019-05-09T20:54:42.136Z,10.35
2019-05-09T20:57:12.443Z,10.36
2019-05-09T20:59:42.726Z,10.39
2019-05-09T21:02:13.049Z,10.58
2019-05-09T21:04:43.423Z,10.46
2019-05-09T21:07:13.801Z,10.46
2019-05-09T21:09:44.068Z,10.50
2019-05-09T21:12:15.884Z,10.39
2019-05-09T21:14:49.128Z,10.48
2019-05-09T21:17:19.439Z,10.44
2019-05-09T21:19:49.692Z,10.52
2019-05-09T21:22:19.972Z,10.53
2019-05-09T21:24:50.245Z,10.49
2019-05-09T21:27:20.522Z,10.45
2019-05-09T21:29:50.804Z,10.44
2019-05-09T21:32:21.089Z,10.53
2019-05-09T21:34:51.168Z,10.47
2019-05-09T21:37:21.256Z,10.45
2019-05-09T21:39:51.339Z,10.43
2019-05-09T21:42:21.438Z,10.36
2019-05-09T21:44:51.671Z,10.42
2019-05-09T21:47:21.761Z,10.50
2019-05-09T21:49:51.846Z,10.39
2019-05-09T21:52:21.941Z,10.41
2019-05-09T21:54:52.026Z,10.36
2019-05-09T21:57:22.129Z,10.32
2019-05-09T21:59:52.210Z,10.33
2019-05-09T22:02:22.629Z,10.28
2019-05-09T22:04:53.450Z,10.31
2019-05-09T22:07:23.612Z,10.39
2019-05-09T22:09:53.744Z,10.36
2019-05-09T22:12:23.843Z,10.42
2019-05-09T22:14:53.931Z,10.35
2019-05-09T22:17:25.661Z,10.10
2019-05-09T22:19:55.755Z,10.17
2019-05-09T22:22:25.848Z,10.29
2019-05-09T22:24:55.930Z,10.23
2019-05-09T22:27:26.023Z,10.13
2019-05-09T22:29:56.107Z,10.06
2019-05-09T22:32:26.203Z,10.03
2019-05-09T22:34:56.280Z,9.92
2019-05-09T22:37:26.374Z,9.88
2019-05-09T22:39:56.457Z,9.80
2019-05-09T22:42:26.599Z,9.83
2019-05-09T22:44:56.683Z,9.68
2019-05-09T22:47:26.831Z,9.61
2019-05-09T22:49:56.931Z,9.64
2019-05-09T22:52:27.019Z,9.60
2019-05-09T22:54:57.095Z,9.62
2019-05-09T22:57:27.182Z,9.41
2019-05-09T22:59:57.264Z,9.48
2019-05-09T23:02:27.345Z,9.38
2019-05-09T23:04:57.497Z,9.19
2019-05-09T23:07:27.905Z,9.21
2019-05-09T23:09:58.165Z,9.24
2019-05-09T23:12:28.258Z,9.17
2019-05-09T23:14:58.339Z,9.19
2019-05-09T23:17:28.429Z,9.18
2019-05-09T23:19:58.575Z,9.09
2019-05-09T23:22:30.306Z,8.99
2019-05-09T23:25:00.397Z,9.10
2019-05-09T23:27:30.482Z,9.03
2019-05-09T23:30:00.564Z,8.96
2019-05-09T23:32:32.297Z,8.83
2019-05-09T23:35:02.378Z,8.84
2019-05-09T23:37:32.457Z,8.86
2019-05-09T23:40:02.577Z,8.83
2019-05-09T23:42:32.655Z,8.87
2019-05-09T23:45:02.788Z,8.80
2019-05-09T23:47:32.877Z,8.51
2019-05-09T23:50:03.036Z,8.57
2019-05-09T23:52:33.116Z,8.70
2019-05-09T23:55:21.028Z,8.69
2019-05-09T23:58:08.834Z,8.80
